Time;durP1;ratioP1;P1;durP2;ratioP2;P2;SDS_P1;SDS_P2;PMS_P1;PMS_P2;Temp;Humidity;BMP_temperature;BMP_pressure;BME280_temperature;BME280_humidity;BME280_pressure;Samples;Min_cycle;Max_cycle;Signal;HPM_P1;HPM_P2
2022/03/22 00:00:37;;;;;;;20.60;13.57;;;;;;;2.02;67.75;97571.41;5071022;28;20455;-86
2022/03/22 00:03:05;;;;;;;19.47;12.43;;;;;;;1.94;67.41;97568.31;5034298;28;20996;-86
2022/03/22 00:05:59;;;;;;;19.33;12.37;;;;;;;1.91;68.03;97571.06;5052871;28;20538;-86
2022/03/22 00:08:25;;;;;;;21.50;12.60;;;;;;;1.76;69.18;97569.22;5048233;28;20447;-86
2022/03/22 00:10:55;;;;;;;21.70;12.90;;;;;;;1.64;69.52;97576.66;5033807;28;20456;-86
2022/03/22 00:13:21;;;;;;;19.00;12.07;;;;;;;1.66;70.19;97573.97;5048652;28;20395;-86
2022/03/22 00:15:50;;;;;;;20.57;12.80;;;;;;;1.58;70.35;97576.09;5043691;28;20454;-85
2022/03/22 00:18:19;;;;;;;20.50;12.50;;;;;;;1.56;70.69;97568.38;5041007;28;20175;-86
2022/03/22 00:20:45;;;;;;;20.13;13.37;;;;;;;1.44;72.15;97576.72;5041886;28;20585;-85
2022/03/22 00:23:11;;;;;;;22.53;12.63;;;;;;;1.29;73.40;97572.22;5049516;28;20537;-86
2022/03/22 00:25:37;;;;;;;21.70;12.97;;;;;;;1.12;75.06;97579.00;5033572;28;20435;-86
2022/03/22 00:28:03;;;;;;;20.63;13.50;;;;;;;1.04;75.99;97575.06;5036152;28;20553;-86
2022/03/22 00:30:35;;;;;;;21.17;13.10;;;;;;;1.16;76.33;97572.78;5036305;28;20052;-85
2022/03/22 00:33:05;;;;;;;20.90;12.10;;;;;;;1.10;76.48;97565.28;5051109;28;20976;-86
2022/03/22 00:35:36;;;;;;;20.83;12.40;;;;;;;1.12;76.37;97573.81;5053329;28;20447;-85
2022/03/22 00:38:04;;;;;;;22.77;12.37;;;;;;;1.22;75.51;97576.00;5052999;28;20455;-85
2022/03/22 00:40:35;;;;;;;20.47;11.70;;;;;;;1.27;75.51;97568.84;5038730;28;20465;-84
2022/03/22 00:43:02;;;;;;;21.23;12.27;;;;;;;1.25;76.09;97563.75;5046510;28;20771;-84
2022/03/22 00:45:33;;;;;;;22.30;12.47;;;;;;;1.26;75.35;97568.03;5051249;28;20549;-84
2022/03/22 00:48:00;;;;;;;18.87;11.80;;;;;;;1.27;75.44;97561.09;5061469;28;20443;-84
2022/03/22 00:50:43;;;;;;;22.23;13.03;;;;;;;1.25;75.08;97568.09;5044205;28;20530;-85
2022/03/22 00:53:09;;;;;;;20.63;12.17;;;;;;;1.29;75.60;97561.88;5038816;28;20474;-85
2022/03/22 00:55:46;;;;;;;24.03;13.47;;;;;;;1.32;75.13;97559.13;5037120;28;20510;-84
2022/03/22 00:58:12;;;;;;;23.53;12.90;;;;;;;1.34;74.81;97571.13;5054137;28;20763;-85
2022/03/22 01:00:39;;;;;;;23.03;12.07;;;;;;;1.39;74.29;97560.53;5040308;28;20459;-85
2022/03/22 01:03:06;;;;;;;20.47;12.53;;;;;;;1.43;73.48;97554.28;5043130;28;20087;-84
2022/03/22 01:05:32;;;;;;;21.87;11.13;;;;;;;1.51;72.11;97559.13;5055806;28;20490;-86
2022/03/22 01:08:02;;;;;;;19.80;11.83;;;;;;;1.52;71.71;97559.06;5074653;28;21008;-86
2022/03/22 01:10:42;;;;;;;20.57;12.67;;;;;;;1.56;71.65;97557.16;5055131;28;20458;-86
2022/03/22 01:13:11;;;;;;;21.90;12.77;;;;;;;1.53;72.00;97555.56;5040249;28;20535;-86
2022/03/22 01:15:42;;;;;;;18.17;11.40;;;;;;;1.51;72.90;97557.41;5073902;28;20459;-85
2022/03/22 01:18:09;;;;;;;23.13;13.07;;;;;;;1.39;73.80;97560.53;5034412;28;20562;-86
2022/03/22 01:20:37;;;;;;;18.23;11.63;;;;;;;1.40;73.50;97555.28;5056401;28;20454;-85
2022/03/22 01:23:07;;;;;;;19.40;11.73;;;;;;;1.36;73.57;97555.50;5047775;28;20463;-85
2022/03/22 01:25:34;;;;;;;21.90;12.07;;;;;;;1.34;74.39;97555.56;5043219;28;20493;-85
2022/03/22 01:28:17;;;;;;;22.70;12.20;;;;;;;1.22;75.24;97563.06;5049648;28;20478;-84
2022/03/22 01:30:43;;;;;;;19.80;12.57;;;;;;;1.16;75.86;97553.81;5041338;28;20474;-85
2022/03/22 01:33:11;;;;;;;22.23;12.40;;;;;;;1.12;76.05;97544.50;5033032;28;20449;-84
2022/03/22 01:35:38;;;;;;;24.73;13.03;;;;;;;1.15;76.19;97555.56;5033371;28;20043;-85
2022/03/22 01:38:04;;;;;;;19.20;12.73;;;;;;;1.06;76.70;97547.34;5057967;28;21027;-83
2022/03/22 01:40:31;;;;;;;18.07;12.17;;;;;;;1.16;75.53;97544.28;5046291;28;20463;-84
2022/03/22 01:42:58;;;;;;;21.20;12.47;;;;;;;1.08;75.68;97543.78;5049719;28;20037;-84
2022/03/22 01:45:23;;;;;;;21.67;13.17;;;;;;;1.14;75.72;97540.94;5034895;28;20549;-84
2022/03/22 01:47:50;;;;;;;20.63;12.60;;;;;;;1.13;75.10;97541.81;5036884;28;20461;-84
2022/03/22 01:50:19;;;;;;;21.47;12.30;;;;;;;1.17;74.74;97539.94;5025114;28;20849;-84
2022/03/22 01:52:46;;;;;;;24.07;13.63;;;;;;;1.13;75.62;97546.16;5019693;28;20464;-84
2022/03/22 01:56:05;;;;;;;18.90;11.33;;;;;;;1.15;75.04;97537.41;5065328;28;20868;-84
2022/03/22 01:58:36;;;;;;;19.20;11.77;;;;;;;1.14;74.95;97535.75;5071572;28;20467;-84
2022/03/22 02:07:51;;;;;;;19.47;12.83;;;;;;;1.17;74.84;97525.25;5068673;28;20429;-83
2022/03/22 02:10:17;;;;;;;20.20;11.67;;;;;;;1.22;73.67;97521.59;5042157;28;20459;-86
2022/03/22 02:12:46;;;;;;;17.50;11.00;;;;;;;1.21;74.01;97528.53;5055129;28;20458;-86
2022/03/22 02:15:13;;;;;;;19.47;12.27;;;;;;;1.17;73.64;97516.59;5059141;28;20542;-86
2022/03/22 02:17:45;;;;;;;19.17;11.07;;;;;;;1.12;74.92;97522.00;5041602;28;20478;-84
2022/03/22 02:20:15;;;;;;;23.73;12.73;;;;;;;1.12;74.52;97521.19;5056230;28;20463;-84
2022/03/22 02:22:51;;;;;;;18.27;11.07;;;;;;;1.12;74.70;97522.00;5047226;28;20829;-84
2022/03/22 02:25:19;;;;;;;19.93;11.47;;;;;;;1.15;75.02;97521.88;5038042;28;20521;-84
2022/03/22 02:27:47;;;;;;;16.70;11.17;;;;;;;1.17;73.81;97526.97;5035585;28;20461;-86
2022/03/22 02:30:15;;;;;;;17.93;11.60;;;;;;;1.15;73.80;97521.88;5049328;28;20463;-86
2022/03/22 02:32:54;;;;;;;15.77;10.33;;;;;;;1.19;72.96;97522.56;5052551;28;20471;-86
2022/03/22 02:35:20;;;;;;;18.30;11.80;;;;;;;1.15;73.40;97521.88;5058243;28;21205;-87
2022/03/22 02:37:46;;;;;;;20.33;12.27;;;;;;;1.16;73.76;97518.38;5053684;28;20835;-86
2022/03/22 02:40:30;;;;;;;20.00;11.50;;;;;;;1.14;74.47;97525.38;5049860;28;20491;-86
2022/03/22 02:43:01;;;;;;;18.17;11.40;;;;;;;1.13;74.05;97528.88;5030117;28;20467;-86
2022/03/22 02:45:35;;;;;;;21.27;12.23;;;;;;;1.13;74.59;97526.28;5043003;28;20512;-86
2022/03/22 02:48:01;;;;;;;17.73;10.63;;;;;;;1.17;72.65;97530.44;5053853;28;20922;-86
2022/03/22 02:50:28;;;;;;;18.07;10.93;;;;;;;1.14;72.62;97534.88;5039550;28;20473;-85
2022/03/22 02:52:54;;;;;;;21.80;11.23;;;;;;;1.14;72.63;97530.56;5053263;28;20809;-86
2022/03/22 02:55:21;;;;;;;20.17;11.93;;;;;;;1.14;73.02;97532.28;5064465;28;20458;-85
2022/03/22 02:57:47;;;;;;;17.03;11.37;;;;;;;1.17;72.61;97533.03;5032463;28;20037;-85
2022/03/22 03:00:14;;;;;;;19.27;11.23;;;;;;;1.11;73.06;97517.75;5059298;28;20454;-85
2022/03/22 03:02:44;;;;;;;18.87;11.37;;;;;;;1.15;72.51;97527.06;5061515;28;20463;-85
2022/03/22 03:05:11;;;;;;;20.00;11.40;;;;;;;1.13;72.97;97526.28;5048246;28;20499;-85
2022/03/22 03:07:37;;;;;;;18.60;11.30;;;;;;;1.11;73.09;97522.94;5034352;28;21028;-85
2022/03/22 03:10:04;;;;;;;18.77;11.47;;;;;;;1.09;72.62;97526.50;5060291;28;20040;-86
2022/03/22 03:12:35;;;;;;;18.37;11.80;;;;;;;1.04;72.59;97524.13;5066522;28;20458;-85
2022/03/22 03:15:02;;;;;;;19.60;11.90;;;;;;;1.02;73.73;97523.34;5046919;28;20493;-85
2022/03/22 03:17:28;;;;;;;18.20;11.20;;;;;;;1.03;73.08;97532.78;5052462;28;20493;-85
2022/03/22 03:19:54;;;;;;;25.90;11.73;;;;;;;0.93;73.00;97542.69;5047126;28;21296;-85
2022/03/22 03:22:19;;;;;;;18.23;11.37;;;;;;;0.91;73.64;97543.69;5036172;28;20135;-85
2022/03/22 03:25:06;;;;;;;18.33;11.40;;;;;;;0.70;75.08;97542.88;5048110;28;20021;-85
2022/03/22 03:27:33;;;;;;;18.53;11.50;;;;;;;0.78;74.70;97542.56;5051495;28;20039;-85
2022/03/22 03:30:00;;;;;;;18.80;10.80;;;;;;;0.85;73.69;97549.16;5045646;28;21061;-85
2022/03/22 03:32:26;;;;;;;17.07;10.67;;;;;;;0.80;73.19;97541.56;5043038;28;20802;-85
2022/03/22 03:34:52;;;;;;;17.80;10.47;;;;;;;0.84;73.70;97540.53;5057116;28;20501;-86
2022/03/22 03:37:18;;;;;;;17.17;10.83;;;;;;;0.81;73.81;97537.25;5041334;28;20028;-85
2022/03/22 03:39:44;;;;;;;20.77;12.07;;;;;;;0.78;73.13;97547.75;5030280;28;20608;-86
2022/03/22 03:42:14;;;;;;;18.23;11.10;;;;;;;0.78;73.67;97547.75;5077754;28;20028;-85
2022/03/22 03:47:31;;;;;;;19.50;11.83;;;;;;;0.70;74.21;97545.47;5044728;28;20451;-86
2022/03/22 03:49:59;;;;;;;19.53;10.97;;;;;;;0.60;74.72;97552.78;5071579;28;20469;-86
2022/03/22 03:52:37;;;;;;;19.83;11.97;;;;;;;0.65;74.24;97552.59;5047933;28;20486;-84
2022/03/22 03:55:07;;;;;;;18.10;10.60;;;;;;;0.66;74.70;97555.09;5039111;28;20467;-85
2022/03/22 03:57:40;;;;;;;16.97;11.10;;;;;;;0.67;75.19;97546.47;5055637;28;20451;-85
2022/03/22 04:00:07;;;;;;;14.95;8.40;;;;;;;0.62;75.28;97545.78;5042707;28;21491;-86
2022/03/22 04:02:41;;;;;;;17.23;11.17;;;;;;;0.64;75.30;97553.50;5045374;28;20551;-85
2022/03/22 04:05:09;;;;;;;20.10;11.33;;;;;;;0.65;74.30;97556.03;5025712;28;20459;-85
2022/03/22 04:07:35;;;;;;;20.53;11.83;;;;;;;0.58;74.06;97541.66;5048502;28;20533;-86
2022/03/22 04:10:01;;;;;;;19.47;11.27;;;;;;;0.58;74.63;97549.44;5037374;28;20545;-85
2022/03/22 04:12:47;;;;;;;21.20;12.30;;;;;;;0.63;73.74;97539.69;5056547;28;20036;-85
2022/03/22 04:15:12;;;;;;;18.03;10.73;;;;;;;0.63;73.77;97544.88;5034949;28;20032;-86
2022/03/22 04:21:28;;;;;;;20.03;11.00;;;;;;;0.61;73.40;97551.06;5062777;28;20054;-85
2022/03/22 04:23:53;;;;;;;16.70;10.97;;;;;;;0.63;72.52;97544.88;5062673;28;20453;-85
2022/03/22 04:26:19;;;;;;;22.30;10.47;;;;;;;0.59;73.35;97547.69;5085252;28;20446;-86
2022/03/22 04:34:13;;;;;;;16.47;10.13;;;;;;;0.57;73.28;97562.41;5066859;28;20435;-86
2022/03/22 04:36:39;;;;;;;18.17;11.13;;;;;;;0.54;72.98;97555.66;5053212;28;20812;-86
2022/03/22 04:39:04;;;;;;;18.33;11.17;;;;;;;0.51;73.23;97555.78;5038234;28;20456;-86
2022/03/22 04:41:46;;;;;;;15.17;9.63;;;;;;;0.49;73.64;97551.56;5037818;28;20287;-86
2022/03/22 04:44:11;;;;;;;18.70;10.13;;;;;;;0.47;73.21;97549.88;5028610;28;20119;-86
2022/03/22 04:46:37;;;;;;;17.80;10.77;;;;;;;0.47;73.52;97552.47;5041287;28;21262;-85
2022/03/22 04:49:03;;;;;;;15.23;9.40;;;;;;;0.45;72.92;97551.69;5048443;28;20028;-85
2022/03/22 04:57:02;;;;;;;16.53;10.30;;;;;;;0.42;71.17;97551.81;5052796;28;20825;-85
2022/03/22 04:59:28;;;;;;;20.77;12.27;;;;;;;0.42;71.54;97550.97;5060265;28;20455;-86
2022/03/22 05:02:00;;;;;;;18.27;12.13;;;;;;;0.28;73.27;97554.16;5050599;28;20461;-86
2022/03/22 05:04:26;;;;;;;20.43;12.10;;;;;;;0.21;74.67;97558.72;5062158;28;20832;-85
2022/03/22 05:06:54;;;;;;;15.27;10.73;;;;;;;0.21;74.97;97563.91;5038852;28;20462;-86
2022/03/22 05:09:30;;;;;;;18.90;11.53;;;;;;;0.21;73.79;97569.09;5050959;28;20025;-85
2022/03/22 05:12:00;;;;;;;18.80;11.30;;;;;;;0.19;72.82;97575.22;5052046;28;20469;-85
2022/03/22 05:14:27;;;;;;;15.50;10.13;;;;;;;0.14;73.18;97572.00;5044702;28;20452;-86
2022/03/22 05:16:56;;;;;;;16.03;10.33;;;;;;;0.13;73.33;97560.78;5039005;28;20461;-85
2022/03/22 05:19:23;;;;;;;21.90;12.20;;;;;;;0.15;72.84;97568.50;5070547;28;20029;-86
2022/03/22 05:21:49;;;;;;;19.37;10.57;;;;;;;0.16;73.04;97571.00;5043446;28;21210;-86
2022/03/22 05:24:15;;;;;;;17.13;10.23;;;;;;;0.09;73.11;97572.16;5046749;28;20813;-86
2022/03/22 05:26:50;;;;;;;20.33;11.37;;;;;;;0.14;73.12;97569.41;5052873;28;20549;-85
2022/03/22 05:29:17;;;;;;;28.70;16.57;;;;;;;0.11;73.57;97567.78;5051998;28;20103;-84
2022/03/22 05:31:45;;;;;;;18.30;11.10;;;;;;;0.15;72.37;97568.50;5038213;28;20475;-84
2022/03/22 05:34:15;;;;;;;17.43;9.00;;;;;;;0.35;70.68;97568.50;5050472;28;20487;-85
2022/03/22 05:36:44;;;;;;;17.17;9.13;;;;;;;0.46;70.03;97568.06;5051894;28;20465;-85
2022/03/22 05:39:19;;;;;;;15.37;9.27;;;;;;;0.46;70.10;97579.25;5024105;28;20498;-83
2022/03/22 05:41:51;;;;;;;18.13;10.53;;;;;;;0.62;69.31;97573.44;5070223;28;20522;-85
2022/03/22 05:44:17;;;;;;;15.47;9.53;;;;;;;0.84;68.13;97571.63;5028778;28;20471;-85
2022/03/22 05:46:44;;;;;;;18.33;10.43;;;;;;;1.11;66.72;97572.16;5047316;28;20512;-84
2022/03/22 05:49:15;;;;;;;18.27;9.37;;;;;;;1.31;65.43;97566.06;5055957;28;20028;-85
2022/03/22 05:51:48;;;;;;;18.70;10.40;;;;;;;1.63;63.28;97569.78;5032939;28;20467;-85
2022/03/22 05:54:14;;;;;;;16.13;10.27;;;;;;;1.77;63.29;97568.28;5044913;28;21036;-84
2022/03/22 05:56:40;;;;;;;16.27;9.07;;;;;;;1.58;63.77;97569.16;5033200;28;20463;-85
2022/03/22 05:59:06;;;;;;;17.47;10.03;;;;;;;1.74;63.76;97571.03;5040502;28;20657;-85
2022/03/22 06:01:31;;;;;;;17.77;10.67;;;;;;;2.30;61.33;97564.88;5040596;28;20032;-85
2022/03/22 06:03:58;;;;;;;16.00;9.50;;;;;;;2.23;61.64;97574.72;5048903;28;20056;-85
2022/03/22 06:06:23;;;;;;;19.20;10.47;;;;;;;2.51;60.47;97581.97;5024772;28;20085;-84
2022/03/22 06:08:50;;;;;;;19.67;10.63;;;;;;;2.94;58.96;97571.16;5054712;28;20455;-85
2022/03/22 06:11:17;;;;;;;17.30;9.60;;;;;;;3.21;58.34;97569.72;5056826;28;20020;-87
2022/03/22 06:13:46;;;;;;;20.20;10.27;;;;;;;3.23;58.30;97569.66;5044828;28;20466;-85
2022/03/22 06:16:12;;;;;;;16.43;9.97;;;;;;;3.69;56.61;97569.75;5027397;28;20478;-85
2022/03/22 06:18:38;;;;;;;16.17;10.17;;;;;;;4.14;53.70;97555.13;5058875;28;20549;-85
2022/03/22 06:21:04;;;;;;;16.73;9.47;;;;;;;3.95;54.43;97558.75;5063669;28;20474;-85
2022/03/22 06:23:30;;;;;;;30.43;17.53;;;;;;;4.70;52.74;97558.84;5049828;28;20036;-85
2022/03/22 06:25:56;;;;;;;19.33;10.20;;;;;;;4.68;51.69;97561.50;5031975;28;20524;-85
2022/03/22 06:28:21;;;;;;;15.27;9.40;;;;;;;4.36;52.31;97570.34;5030612;28;20025;-85
2022/03/22 06:30:57;;;;;;;14.83;10.43;;;;;;;4.97;51.18;97567.63;5052460;28;20065;-85
2022/03/22 06:33:24;;;;;;;17.40;10.73;;;;;;;4.84;52.41;97563.22;5037535;28;20092;-86
2022/03/22 06:35:50;;;;;;;17.07;8.80;;;;;;;4.45;51.73;97570.66;5032118;28;20471;-85
2022/03/22 06:38:26;;;;;;;19.47;9.70;;;;;;;4.92;51.14;97561.81;5047996;28;20470;-85
2022/03/22 06:40:59;;;;;;;26.53;16.60;;;;;;;5.17;51.51;97569.03;5064815;28;20431;-85
2022/03/22 06:43:30;;;;;;;62.25;32.03;;;;;;;5.91;50.02;97574.91;5064333;28;20446;-86
2022/03/22 06:45:56;;;;;;;50.60;26.50;;;;;;;6.27;49.28;97566.50;5050152;28;20044;-85
2022/03/22 06:48:23;;;;;;;41.50;21.67;;;;;;;6.13;47.50;97566.53;5052091;28;20698;-85
2022/03/22 06:50:49;;;;;;;22.70;12.43;;;;;;;6.10;47.98;97571.97;5041987;28;20037;-86
2022/03/22 06:53:15;;;;;;;26.60;14.27;;;;;;;6.63;47.40;97567.63;5053300;28;21046;-85
2022/03/22 06:55:55;;;;;;;18.97;10.83;;;;;;;6.64;47.51;97573.69;5053450;28;20033;-85
2022/03/22 06:58:22;;;;;;;21.50;12.63;;;;;;;7.28;45.81;97564.13;5020153;28;20598;-85
2022/03/22 07:01:20;;;;;;;19.27;10.73;;;;;;;6.99;45.06;97569.56;5049114;28;20043;-85
2022/03/22 07:03:45;;;;;;;16.90;9.80;;;;;;;6.55;46.25;97565.53;5045574;28;20025;-85
2022/03/22 07:06:14;;;;;;;16.53;10.27;;;;;;;7.77;44.68;97561.50;5038122;28;20035;-85
2022/03/22 07:08:52;;;;;;;18.40;10.47;;;;;;;7.69;44.70;97566.44;5032585;28;20115;-85
2022/03/22 07:14:03;;;;;;;20.57;12.40;;;;;;;7.84;43.83;97572.38;5055298;28;20070;-85
2022/03/22 07:16:30;;;;;;;18.23;11.60;;;;;;;7.89;42.91;97564.19;5048395;28;20032;-85
2022/03/22 07:18:55;;;;;;;16.37;9.00;;;;;;;7.85;43.27;97562.75;5047527;28;20520;-85
2022/03/22 07:21:22;;;;;;;20.93;12.23;;;;;;;7.95;43.18;97569.00;5051021;28;20020;-85
2022/03/22 07:23:47;;;;;;;17.33;10.90;;;;;;;8.32;42.74;97561.09;5029753;28;20033;-85
2022/03/22 07:26:22;;;;;;;13.97;8.63;;;;;;;8.55;42.07;97570.75;5041564;28;20048;-85
2022/03/22 07:32:35;;;;;;;14.07;8.00;;;;;;;8.52;41.49;97563.09;5064110;28;20039;-85
2022/03/22 07:35:00;;;;;;;14.57;8.33;;;;;;;8.35;40.34;97563.47;5049310;28;20152;-85
2022/03/22 07:37:29;;;;;;;16.47;9.80;;;;;;;9.06;39.00;97557.28;5050634;28;20471;-85
2022/03/22 07:40:22;;;;;;;14.37;9.30;;;;;;;9.10;38.81;97563.94;5029362;28;20041;-85
2022/03/22 07:42:48;;;;;;;15.50;8.63;;;;;;;9.82;38.52;97568.81;5032199;28;20496;-85
2022/03/22 07:45:20;;;;;;;11.97;8.27;;;;;;;9.87;37.72;97563.22;5027455;28;20490;-85
2022/03/22 07:47:46;;;;;;;14.93;9.80;;;;;;;9.12;38.51;97575.19;5019908;28;20033;-85
2022/03/22 07:53:06;;;;;;;12.50;8.13;;;;;;;9.17;38.46;97580.06;5053720;28;20044;-85
2022/03/22 07:55:37;;;;;;;16.37;7.83;;;;;;;9.51;38.35;97580.91;5056293;28;20408;-85
2022/03/22 07:58:05;;;;;;;14.90;8.87;;;;;;;9.73;39.00;97581.88;5046992;28;20127;-85
2022/03/22 08:00:34;;;;;;;13.13;8.40;;;;;;;10.62;37.29;97579.03;5044567;28;20028;-85
2022/03/22 08:03:03;;;;;;;14.50;8.93;;;;;;;10.74;38.07;97573.72;5031497;28;20040;-84
2022/03/22 08:05:30;;;;;;;11.17;6.73;;;;;;;10.23;37.11;97585.72;5034776;28;20033;-85
2022/03/22 08:08:23;;;;;;;14.60;7.80;;;;;;;10.87;35.87;97577.00;5032453;28;20023;-85
2022/03/22 08:10:49;;;;;;;15.03;7.30;;;;;;;10.74;36.54;97584.25;5057631;28;20040;-85
2022/03/22 08:13:38;;;;;;;11.97;7.77;;;;;;;10.61;36.49;97581.78;5061289;28;20187;-85
2022/03/22 08:16:05;;;;;;;13.80;8.27;;;;;;;10.14;37.64;97592.56;5046560;28;20082;-85
2022/03/22 08:18:45;;;;;;;12.03;7.83;;;;;;;11.43;35.80;97575.78;5042104;28;20140;-85
2022/03/22 08:21:10;;;;;;;12.23;7.87;;;;;;;10.89;35.14;97577.69;5056588;28;20111;-85
2022/03/22 08:23:36;;;;;;;12.20;7.70;;;;;;;11.42;35.40;97571.50;5033995;28;20143;-85
2022/03/22 08:26:02;;;;;;;13.83;8.07;;;;;;;12.92;33.26;97566.91;5050609;28;20393;-85
2022/03/22 08:28:28;;;;;;;14.17;8.67;;;;;;;12.83;32.10;97573.03;5056279;28;20575;-84
2022/03/22 08:30:53;;;;;;;16.20;10.90;;;;;;;13.30;32.59;97567.00;5067875;28;20040;-85
2022/03/22 08:33:20;;;;;;;13.00;8.33;;;;;;;14.78;29.24;97565.88;5066055;28;20478;-85
2022/03/22 08:35:49;;;;;;;11.60;8.07;;;;;;;13.27;30.46;97567.28;5058086;28;20169;-84
2022/03/22 08:38:19;;;;;;;13.27;8.73;;;;;;;12.62;31.79;97575.00;5047706;28;20029;-85
2022/03/22 08:40:56;;;;;;;11.97;8.10;;;;;;;12.66;32.03;97571.94;5056458;28;20040;-84
2022/03/22 08:43:25;;;;;;;15.07;7.90;;;;;;;12.29;32.88;97571.78;5056864;28;20036;-84
2022/03/22 08:45:52;;;;;;;12.80;8.43;;;;;;;12.01;33.66;97565.50;5034864;28;20028;-84
2022/03/22 08:48:24;;;;;;;11.70;8.43;;;;;;;12.20;33.51;97560.25;5054748;28;20032;-84
2022/03/22 08:51:05;;;;;;;16.97;8.47;;;;;;;11.76;33.67;97564.13;5047240;28;20119;-81
2022/03/22 08:53:32;;;;;;;12.63;8.73;;;;;;;11.87;33.63;97569.34;5042988;28;20024;-82
2022/03/22 08:56:03;;;;;;;15.43;9.47;;;;;;;12.61;33.08;97565.41;5046600;28;20070;-83
2022/03/22 08:58:30;;;;;;;12.90;8.57;;;;;;;13.28;32.05;97566.31;5053513;28;20086;-84
2022/03/22 09:00:56;;;;;;;15.10;8.60;;;;;;;12.97;32.76;97566.47;5053118;28;20041;-84
2022/03/22 09:06:07;;;;;;;13.17;8.73;;;;;;;13.19;32.33;97563.53;5055521;28;20039;-84
2022/03/22 09:06:37;;;;;;;13.97;8.80;;;;;;;13.80;31.63;97556.09;5065912;28;20028;-83
2022/03/22 09:09:04;;;;;;;12.73;8.83;;;;;;;14.78;29.97;97555.28;5072133;28;20029;-84
2022/03/22 09:11:30;;;;;;;17.30;10.40;;;;;;;13.82;30.83;97554.97;5035059;28;20033;-84
2022/03/22 09:13:55;;;;;;;14.30;9.40;;;;;;;14.26;31.35;97547.19;5037810;28;20032;-83
2022/03/22 09:16:21;;;;;;;14.43;9.03;;;;;;;14.84;30.83;97549.38;5054399;28;20367;-83
2022/03/22 09:18:48;;;;;;;16.13;10.70;;;;;;;15.47;29.48;97545.66;5052734;28;20056;-84
2022/03/22 09:21:15;;;;;;;11.83;8.53;;;;;;;16.57;28.47;97546.53;5057549;28;20033;-83
2022/03/22 09:23:41;;;;;;;15.93;9.73;;;;;;;14.26;31.22;97552.47;5044377;28;20785;-83
2022/03/22 09:26:06;;;;;;;15.63;9.50;;;;;;;14.69;30.75;97552.72;5071703;28;20123;-83
2022/03/22 09:28:32;;;;;;;12.63;9.43;;;;;;;14.33;30.97;97548.25;5055610;28;20977;-83
2022/03/22 09:31:00;;;;;;;14.63;9.63;;;;;;;15.49;30.09;97542.84;5056074;28;20025;-83
2022/03/22 09:33:30;;;;;;;15.03;10.73;;;;;;;16.15;29.52;97542.13;5032426;28;20029;-84
2022/03/22 09:35:57;;;;;;;12.60;9.13;;;;;;;15.47;29.56;97543.00;5053269;28;20702;-83
2022/03/22 09:38:24;;;;;;;14.13;9.40;;;;;;;16.25;29.32;97542.00;5054181;28;20040;-83
2022/03/22 09:40:53;;;;;;;12.73;9.50;;;;;;;16.27;28.62;97532.06;5046388;28;20082;-83
2022/03/22 09:43:22;;;;;;;12.77;9.23;;;;;;;16.38;29.69;97529.06;5070805;28;20066;-83
2022/03/22 09:45:50;;;;;;;12.40;9.68;;;;;;;17.26;28.08;97524.91;5054839;28;20478;-83
2022/03/22 09:48:17;;;;;;;15.80;11.07;;;;;;;17.03;28.67;97530.09;5033853;28;20029;-83
2022/03/22 09:53:30;;;;;;;11.97;9.43;;;;;;;16.52;29.40;97524.94;5062640;28;20033;-84
2022/03/22 09:55:56;;;;;;;13.85;10.02;;;;;;;16.53;30.26;97531.91;5054978;28;20032;-83
2022/03/22 09:58:31;;;;;;;16.67;10.07;;;;;;;16.63;29.88;97529.09;5062980;28;20031;-83
2022/03/22 10:01:27;;;;;;;13.15;9.40;;;;;;;17.62;28.05;97526.16;5057071;28;20502;-83
2022/03/22 10:04:12;;;;;;;13.55;9.85;;;;;;;17.35;28.69;97523.91;5030747;28;20086;-83
2022/03/22 10:07:02;;;;;;;17.08;10.27;;;;;;;16.27;29.49;97527.56;5054671;28;20538;-83
2022/03/22 10:09:32;;;;;;;14.75;8.98;;;;;;;17.35;28.67;97523.91;5042458;28;20107;-84
2022/03/22 10:11:58;;;;;;;13.80;9.93;;;;;;;16.26;30.11;97525.06;5049875;28;20474;-84
2022/03/22 10:14:35;;;;;;;13.77;9.07;;;;;;;17.90;29.00;97528.38;5035297;28;20029;-83
2022/03/22 10:17:16;;;;;;;14.60;10.43;;;;;;;16.96;29.24;97525.47;5031850;28;20036;-83
2022/03/22 10:19:51;;;;;;;12.68;9.30;;;;;;;18.66;27.39;97516.09;5052650;28;20032;-84
2022/03/22 10:22:27;;;;;;;13.98;10.02;;;;;;;17.23;28.10;97517.28;5055794;28;20360;-83
2022/03/22 10:24:58;;;;;;;15.10;9.80;;;;;;;16.82;29.37;97523.47;5039327;28;20069;-84
2022/03/22 10:27:26;;;;;;;13.45;9.00;;;;;;;17.90;28.50;97521.22;5042977;28;20094;-83
2022/03/22 10:29:53;;;;;;;16.85;10.05;;;;;;;17.01;29.23;97516.19;5039145;28;20520;-83
2022/03/22 10:32:40;;;;;;;15.18;9.75;;;;;;;18.10;27.77;97512.81;5039626;28;20029;-84
2022/03/22 10:35:29;;;;;;;14.88;10.02;;;;;;;18.79;27.74;97504.88;5034097;28;20036;-84
2022/03/22 10:38:06;;;;;;;17.25;10.65;;;;;;;18.63;27.09;97504.97;5043956;28;20047;-83
2022/03/22 10:40:47;;;;;;;16.58;10.52;;;;;;;19.53;26.28;97495.09;5037439;28;20064;-83
2022/03/22 10:43:18;;;;;;;13.73;10.32;;;;;;;19.42;26.66;97498.25;5036416;28;20502;-83
2022/03/22 10:45:54;;;;;;;16.20;10.63;;;;;;;19.98;25.61;97501.22;5043314;28;20388;-84
2022/03/22 10:48:26;;;;;;;13.63;9.88;;;;;;;19.47;26.50;97498.50;5065320;28;20100;-83
2022/03/22 10:50:54;;;;;;;13.35;10.27;;;;;;;19.71;26.14;97504.59;5029047;28;20395;-83
2022/03/22 10:53:23;;;;;;;15.10;10.27;;;;;;;20.35;26.16;97503.88;5048618;28;20060;-83
2022/03/22 10:55:50;;;;;;;19.50;16.23;;;;;;;19.78;26.35;97497.50;5042302;28;20041;-83
2022/03/22 10:58:25;;;;;;;15.20;11.02;;;;;;;20.02;26.22;97493.69;5036329;28;20033;-83
2022/03/22 11:00:51;;;;;;;13.35;10.95;;;;;;;20.83;25.06;97496.97;5052605;28;20033;-83
2022/03/22 11:03:19;;;;;;;12.80;10.00;;;;;;;19.85;26.25;97493.09;5042437;28;20032;-83
2022/03/22 11:05:52;;;;;;;19.35;10.05;;;;;;;20.56;25.30;97492.44;5039129;28;20115;-82
2022/03/22 11:08:20;;;;;;;14.63;10.77;;;;;;;20.48;25.91;97490.66;5029826;28;20732;-83
2022/03/22 11:10:47;;;;;;;13.30;10.45;;;;;;;20.22;26.17;97488.53;5046079;28;20489;-84
2022/03/22 11:13:14;;;;;;;12.02;9.93;;;;;;;19.45;27.28;97486.34;5034594;28;20632;-84
2022/03/22 11:15:44;;;;;;;13.13;10.45;;;;;;;19.63;26.26;97483.31;5050285;28;20394;-82
2022/03/22 11:18:19;;;;;;;14.52;10.75;;;;;;;18.93;27.47;97493.41;5029092;28;20698;-84
2022/03/22 11:21:01;;;;;;;18.63;11.10;;;;;;;19.68;26.17;97488.94;5035536;28;20033;-84
2022/03/22 11:23:29;;;;;;;14.07;11.90;;;;;;;19.96;26.78;97479.25;5043880;28;20024;-83
2022/03/22 11:26:10;;;;;;;15.38;11.65;;;;;;;20.60;25.10;97478.47;5040610;28;20033;-83
2022/03/22 11:28:45;;;;;;;17.25;11.00;;;;;;;19.14;26.53;97489.19;5050012;28;20029;-83
2022/03/22 11:31:19;;;;;;;15.02;10.85;;;;;;;19.83;26.46;97486.28;5046930;28;20028;-84
2022/03/22 11:36:44;;;;;;;18.05;10.70;;;;;;;20.98;25.11;97470.13;5068458;28;20031;-83
2022/03/22 11:39:16;;;;;;;14.20;10.07;;;;;;;19.90;26.63;97469.31;5052895;28;20025;-84
2022/03/22 11:44:31;;;;;;;13.30;9.75;;;;;;;20.07;25.86;97469.91;5066253;28;20036;-83
2022/03/22 11:47:07;;;;;;;14.88;10.32;;;;;;;19.78;26.17;97470.78;5061289;28;20043;-83
2022/03/22 11:49:53;;;;;;;13.20;9.88;;;;;;;20.50;26.02;97464.59;5051612;28;20037;-84
2022/03/22 11:52:20;;;;;;;13.88;9.30;;;;;;;20.75;24.69;97462.34;5048325;28;20062;-84
2022/03/22 11:55:05;;;;;;;12.63;9.85;;;;;;;19.44;26.84;97474.84;5028990;28;20032;-84
2022/03/22 11:57:46;;;;;;;13.20;9.93;;;;;;;19.90;25.57;97463.97;5035894;28;20037;-83
2022/03/22 12:00:14;;;;;;;15.32;11.02;;;;;;;19.99;25.66;97462.03;5046146;28;20039;-84
2022/03/22 12:02:52;;;;;;;11.32;9.23;;;;;;;20.58;24.61;97456.44;5044501;28;20032;-84
2022/03/22 12:05:23;;;;;;;15.52;10.45;;;;;;;20.69;24.34;97452.41;5041407;28;20087;-83
2022/03/22 12:07:51;;;;;;;14.25;10.43;;;;;;;20.69;25.22;97447.06;5025732;28;20068;-84
2022/03/22 12:10:19;;;;;;;12.07;9.32;;;;;;;20.55;25.24;97450.66;5027708;28;20550;-82
2022/03/22 12:12:50;;;;;;;12.90;8.98;;;;;;;19.09;25.99;97465.75;5032761;28;20110;-84
2022/03/22 12:15:30;;;;;;;12.90;9.52;;;;;;;20.10;25.14;97450.00;5042911;28;20127;-84
2022/03/22 12:17:58;;;;;;;14.05;8.63;;;;;;;20.64;24.98;97449.53;5065490;28;20040;-84
2022/03/22 12:20:24;;;;;;;12.25;9.30;;;;;;;20.39;24.57;97449.06;5036361;28;20064;-84